| time (UTC) | temp F | wind direction | speed knots | gust knots | rain 1hr in | rain 24hr in | rain mn in | humidity % | barometer mb |
| 20260505221544 | 78 | 229 | 3.5 | 12.2 | 0.00 | 0.00 | 0.00 | 43 | 1013.3 |
| 20260505220042 | 79 | 201 | 5.2 | 14.8 | 0.00 | 0.00 | 0.00 | 43 | 1013.4 |
| 20260505214600 | 79 | 215 | 4.3 | 8.7 | 0.00 | 0.00 | 0.00 | 43 | 1013.3 |
| 20260505213056 | 79 | 258 | 1.7 | 11.3 | 0.00 | 0.00 | 0.00 | 40 | 1013.5 |
| 20260505211544 | 79 | 186 | 3.5 | 9.6 | 0.00 | 0.00 | 0.00 | 41 | 1013.5 |
| 20260505210042 | 79 | 182 | 3.5 | 13.9 | 0.00 | 0.00 | 0.00 | 41 | 1013.4 |
| 20260505204554 | 79 | 283 | 3.5 | 12.2 | 0.00 | 0.00 | 0.00 | 42 | 1013.8 |
| 20260505203043 | 79 | 158 | 3.5 | 9.6 | 0.00 | 0.00 | 0.00 | 41 | 1013.9 |
| 20260505201545 | 78 | 207 | 3.5 | 12.2 | 0.00 | 0.00 | 0.00 | 40 | 1014.1 |
| 20260505200057 | 78 | 191 | 4.3 | 13.0 | 0.00 | 0.00 | 0.00 | 43 | 1014.2 |
| 20260505194547 | 78 | 216 | 2.6 | 11.3 | 0.00 | 0.00 | 0.00 | 42 | 1014.5 |
| 20260505193048 | 78 | 202 | 4.3 | 11.3 | 0.00 | 0.00 | 0.00 | 41 | 1014.6 |
| 20260505191539 | 79 | 190 | 2.6 | 11.3 | 0.00 | 0.00 | 0.00 | 41 | 1014.9 |
| 20260505190042 | 78 | 215 | 6.1 | 11.3 | 0.00 | 0.00 | 0.00 | 41 | 1015.2 |
| 20260505184545 | 78 | 264 | 4.3 | 9.6 | 0.00 | 0.00 | 0.00 | 40 | 1015.4 |
| 20260505183039 | 78 | 175 | 5.2 | 13.0 | 0.00 | 0.00 | 0.00 | 39 | 1015.5 |
| 20260505181542 | 78 | 271 | 6.1 | 13.0 | 0.00 | 0.00 | 0.00 | 42 | 1015.5 |
| 20260505180100 | 78 | 212 | 4.3 | 8.7 | 0.00 | 0.00 | 0.00 | 43 | 1015.6 |
| 20260505174556 | 77 | 286 | 5.2 | 11.3 | 0.00 | 0.00 | 0.00 | 44 | 1015.8 |
| 20260505173046 | 76 | 167 | 4.3 | 10.4 | 0.00 | 0.00 | 0.00 | 44 | 1016.2 |
| 20260505171542 | 76 | 296 | 4.3 | 15.6 | 0.00 | 0.00 | 0.00 | 42 | 1016.4 |
| 20260505170041 | 76 | 263 | 5.2 | 14.8 | 0.00 | 0.00 | 0.00 | 41 | 1016.4 |
| 20260505164540 | 76 | 237 | 3.5 | 10.4 | 0.00 | 0.00 | 0.00 | 45 | 1016.3 |
| 20260505163035 | 74 | 215 | 4.3 | 9.6 | 0.00 | 0.00 | 0.00 | 50 | 1016.4 |
| 20260505161548 | 73 | 255 | 1.7 | 7.0 | 0.00 | 0.00 | 0.00 | 53 | 1016.5 |
| 20260505153052 | 70 | 169 | 1.7 | 7.0 | 0.00 | 0.00 | 0.00 | 58 | 1017.1 |
| 20260505151540 | 69 | 243 | 1.7 | 3.5 | 0.00 | 0.00 | 0.00 | 62 | 1017.2 |
| 20260505124537 | 59 | 0 | 0.0 | 4.3 | 0.00 | 0.00 | 0.00 | 81 | 1016.4 |
| 20260505123041 | 57 | 0 | 0.9 | 3.5 | 0.00 | 0.00 | 0.00 | 82 | 1016.4 |
| 20260505121538 | 55 | 187 | 0.9 | 3.5 | 0.00 | 0.00 | 0.00 | 83 | 1016.6 |
| 20260505120038 | 54 | 202 | 1.7 | 4.3 | 0.00 | 0.00 | 0.00 | 84 | 1016.3 |
| 20260505114541 | 51 | 0 | 0.0 | 0.0 | 0.00 | 0.00 | 0.00 | 88 | 1015.9 |
| 20260505113041 | 50 | 0 | 0.0 | 1.7 | 0.00 | 0.00 | 0.00 | 89 | 1015.7 |
| 20260505111542 | 48 | 93 | 0.0 | 1.7 | 0.00 | 0.00 | 0.00 | 90 | 1015.6 |
| 20260505101542 | 49 | 0 | 0.0 | 2.6 | 0.00 | 0.00 | 0.00 | 90 | 1015.4 |
| 20260505100038 | 49 | 201 | 0.0 | 0.9 | 0.00 | 0.00 | 0.00 | 90 | 1015.5 |
| 20260505094541 | 51 | 0 | 0.0 | 2.6 | 0.00 | 0.00 | 0.00 | 85 | 1015.5 |
| 20260505093038 | 51 | 300 | 0.0 | 2.6 | 0.00 | 0.00 | 0.00 | 89 | 1015.6 |
| 20260505091543 | 52 | 0 | 0.0 | 3.5 | 0.00 | 0.00 | 0.00 | 88 | 1015.4 |
| 20260505090047 | 52 | 0 | 0.0 | 1.7 | 0.00 | 0.00 | 0.00 | 89 | 1015.3 |
| 20260505084543 | 51 | 0 | 0.0 | 1.7 | 0.00 | 0.00 | 0.00 | 90 | 1015.4 |
| 20260505083039 | 52 | 317 | 0.0 | 2.6 | 0.00 | 0.00 | 0.00 | 90 | 1015.3 |
| 20260505081554 | 52 | 307 | 2.6 | 6.1 | 0.00 | 0.00 | 0.00 | 88 | 1015.3 |
| 20260505080051 | 52 | 0 | 0.0 | 0.9 | 0.00 | 0.00 | 0.00 | 87 | 1015.0 |
| 20260505074534 | 53 | 0 | 0.0 | 0.0 | 0.00 | 0.00 | 0.00 | 86 | 1014.8 |
| 20260505073046 | 54 | 0 | 0.0 | 0.0 | 0.00 | 0.00 | 0.00 | 84 | 1014.9 |
| 20260505071551 | 54 | 0 | 0.0 | 0.0 | 0.00 | 0.00 | 0.00 | 82 | 1015.0 |
| 20260505070045 | 56 | 310 | 0.0 | 2.6 | 0.00 | 0.00 | 0.00 | 78 | 1015.0 |
| 20260505064535 | 56 | 308 | 0.9 | 4.3 | 0.00 | 0.00 | 0.00 | 76 | 1015.1 |
| 20260505063042 | 56 | 286 | 0.9 | 2.6 | 0.00 | 0.00 | 0.00 | 76 | 1015.2 |
| 20260505061607 | 57 | 303 | 1.7 | 3.5 | 0.00 | 0.00 | 0.00 | 73 | 1015.3 |
| 20260505060042 | 58 | 273 | 2.6 | 4.3 | 0.00 | 0.00 | 0.00 | 70 | 1015.3 |
| 20260505054540 | 59 | 283 | 1.7 | 3.5 | 0.00 | 0.00 | 0.00 | 68 | 1015.3 |
| 20260505053043 | 60 | 290 | 0.9 | 3.5 | 0.00 | 0.00 | 0.00 | 66 | 1015.3 |
| 20260505051555 | 61 | 276 | 0.9 | 4.3 | 0.00 | 0.00 | 0.00 | 63 | 1015.2 |
| 20260505041535 | 61 | 0 | 0.0 | 1.7 | 0.00 | 0.00 | 0.00 | 62 | 1015.2 |
| 20260505040035 | 61 | 0 | 0.0 | 2.6 | 0.00 | 0.00 | 0.00 | 62 | 1015.4 |
| 20260505034533 | 61 | 0 | 0.0 | 0.0 | 0.00 | 0.00 | 0.00 | 65 | 1015.5 |
| 20260505033041 | 62 | 0 | 0.0 | 0.0 | 0.00 | 0.00 | 0.00 | 62 | 1015.5 |
| 20260505031540 | 63 | 0 | 0.0 | 0.0 | 0.00 | 0.00 | 0.00 | 60 | 1015.5 |
| 20260505030042 | 64 | 0 | 0.0 | 0.0 | 0.00 | 0.00 | 0.00 | 60 | 1015.6 |
| 20260505024548 | 64 | 0 | 0.0 | 1.7 | 0.00 | 0.00 | 0.00 | 58 | 1015.5 |
| 20260505023041 | 65 | 0 | 0.0 | 4.3 | 0.00 | 0.00 | 0.00 | 57 | 1015.5 |
| 20260505021542 | 65 | 191 | 0.0 | 2.6 | 0.00 | 0.00 | 0.00 | 57 | 1015.3 |
| 20260505020040 | 65 | 195 | 0.0 | 2.6 | 0.00 | 0.00 | 0.00 | 56 | 1015.3 |
| 20260505014539 | 66 | 0 | 0.0 | 2.6 | 0.00 | 0.00 | 0.00 | 57 | 1015.2 |
| 20260505013036 | 66 | 0 | 0.0 | 1.7 | 0.00 | 0.00 | 0.00 | 56 | 1015.0 |
| 20260505011537 | 66 | 0 | 0.0 | 0.0 | 0.00 | 0.00 | 0.00 | 58 | 1014.9 |
| 20260505010037 | 67 | 0 | 0.0 | 2.6 | 0.00 | 0.00 | 0.00 | 57 | 1014.6 |
| 20260505004543 | 68 | 0 | 0.0 | 1.7 | 0.00 | 0.00 | 0.00 | 54 | 1014.5 |
| 20260505003041 | 69 | 220 | 0.0 | 1.7 | 0.00 | 0.00 | 0.00 | 50 | 1014.4 |
| 20260505001541 | 70 | 255 | 0.0 | 1.7 | 0.00 | 0.00 | 0.00 | 50 | 1014.4 |
| 20260505000045 | 71 | 209 | 0.0 | 1.7 | 0.00 | 0.00 | 0.00 | 49 | 1014.4 |
| 20260504234541 | 71 | 0 | 0.0 | 1.7 | 0.00 | 0.00 | 0.00 | 49 | 1014.3 |
| 20260504233100 | 72 | 0 | 0.0 | 2.6 | 0.00 | 0.00 | 0.00 | 48 | 1014.2 |
| 20260504231546 | 73 | 0 | 0.0 | 2.6 | 0.00 | 0.00 | 0.00 | 46 | 1014.1 |
| 20260504230050 | 73 | 221 | 0.9 | 6.1 | 0.00 | 0.00 | 0.00 | 46 | 1014.1 |
| 20260504224541 | 74 | 0 | 0.9 | 7.0 | 0.00 | 0.00 | 0.00 | 44 | 1014.0 |
| 20260504223034 | 75 | 184 | 0.0 | 2.6 | 0.00 | 0.00 | 0.00 | 44 | 1014.0 |